createdAt,value
2016-11-11T00:00:19.682Z,53.45
2016-11-11T00:01:01.147Z,54.03
2016-11-11T00:01:42.788Z,53.33
2016-11-11T00:02:24.509Z,53.62
2016-11-11T00:03:05.995Z,53.05
2016-11-11T00:03:47.704Z,54.03
2016-11-11T00:04:29.391Z,53.55
2016-11-11T00:05:11.097Z,53.81
2016-11-11T00:07:26.363Z,53.36
2016-11-11T00:08:08.106Z,53.36
2016-11-11T00:10:08.194Z,53.23
2016-11-11T00:10:49.911Z,53.36
2016-11-11T00:11:31.618Z,53.43
2016-11-11T00:12:13.316Z,53.14
2016-11-11T00:12:55.033Z,53.05
2016-11-11T00:15:10.325Z,53.14
2016-11-11T00:15:52.114Z,53.14
2016-11-11T00:16:33.758Z,53.14
2016-11-11T00:17:15.428Z,53.14
2016-11-11T00:19:15.525Z,52.75
2016-11-11T00:21:30.988Z,53.23
2016-11-11T00:22:12.663Z,53.33
2016-11-11T00:22:54.369Z,52.95
2016-11-11T00:23:36.066Z,53.14
2016-11-11T00:25:36.113Z,53.14
2016-11-11T00:26:17.808Z,53.33
2016-11-11T00:28:17.827Z,52.75
2016-11-11T00:28:59.533Z,53.53
2016-11-11T00:29:41.267Z,53.05
2016-11-11T00:30:23.011Z,53.27
2016-11-11T00:31:04.782Z,52.75
2016-11-11T00:31:46.425Z,52.66
2016-11-11T00:32:28.113Z,53.23
2016-11-11T00:33:09.861Z,53.27
2016-11-11T00:33:51.586Z,53.14
2016-11-11T00:34:33.261Z,52.75
2016-11-11T00:36:22.736Z,53.23
2016-11-11T00:37:04.448Z,53.33
2016-11-11T00:37:46.151Z,52.75
2016-11-11T00:38:27.846Z,53.14
2016-11-11T00:39:09.498Z,52.56
2016-11-11T00:39:51.089Z,52.85
2016-11-11T00:40:32.877Z,52.85
2016-11-11T00:42:27.536Z,52.59
2016-11-11T00:43:09.214Z,52.66
2016-11-11T00:43:50.890Z,52.75
2016-11-11T00:44:32.611Z,52.56
2016-11-11T00:45:14.277Z,52.56
2016-11-11T00:45:56.002Z,52.69
2016-11-11T00:46:37.676Z,52.87
2016-11-11T00:47:19.375Z,53.14
2016-11-11T00:48:01.080Z,52.66
2016-11-11T00:48:42.806Z,52.75
2016-11-11T00:49:24.529Z,52.75
2016-11-11T00:50:06.184Z,52.85
2016-11-11T00:50:47.909Z,52.75
2016-11-11T00:51:29.597Z,52.75
2016-11-11T00:52:11.233Z,52.75
2016-11-11T00:52:52.957Z,52.66
2016-11-11T00:53:34.477Z,52.66
2016-11-11T00:55:23.770Z,52.75
2016-11-11T00:57:39.066Z,52.56
2016-11-11T00:58:20.793Z,52.56
2016-11-11T00:59:02.286Z,52.75
2016-11-11T01:01:22.541Z,52.75
2016-11-11T01:02:03.083Z,52.66
2016-11-11T01:02:43.630Z,52.18
2016-11-11T01:03:24.168Z,52.47
2016-11-11T01:04:04.716Z,52.85
2016-11-11T01:04:45.258Z,52.85
2016-11-11T01:05:25.803Z,52.75
2016-11-11T01:06:06.352Z,52.27
2016-11-11T01:06:46.891Z,52.18
2016-11-11T01:07:27.440Z,52.66
2016-11-11T01:08:07.986Z,52.66
2016-11-11T01:08:48.529Z,52.18
2016-11-11T01:09:29.073Z,52.47
2016-11-11T01:10:09.617Z,52.66
2016-11-11T01:10:50.161Z,52.75
2016-11-11T01:11:30.702Z,52.75
2016-11-11T01:12:11.243Z,52.56
2016-11-11T01:12:51.786Z,52.66
2016-11-11T01:13:32.325Z,52.85
2016-11-11T01:14:12.871Z,52.27
2016-11-11T01:14:53.412Z,52.66
2016-11-11T01:15:33.952Z,52.56
2016-11-11T01:16:14.498Z,52.08
2016-11-11T01:16:55.044Z,52.27
2016-11-11T01:17:35.595Z,52.56
2016-11-11T01:18:16.139Z,52.75
2016-11-11T01:18:56.682Z,52.56
2016-11-11T01:19:37.225Z,52.18
2016-11-11T01:20:17.774Z,52.75
2016-11-11T01:20:58.317Z,52.27
2016-11-11T01:21:38.865Z,52.37
2016-11-11T01:22:19.407Z,52.18
2016-11-11T01:22:59.945Z,52.56
2016-11-11T01:23:40.487Z,52.18
2016-11-11T01:24:21.032Z,52.27
2016-11-11T01:25:01.574Z,52.56
2016-11-11T01:25:42.120Z,52.27
2016-11-11T01:26:22.662Z,51.89
2016-11-11T01:27:03.207Z,52.08
2016-11-11T01:27:43.756Z,52.66
2016-11-11T01:28:24.300Z,52.37
2016-11-11T01:29:04.844Z,52.47
2016-11-11T01:29:45.391Z,52.08
2016-11-11T01:30:25.936Z,52.27
2016-11-11T01:31:06.481Z,52.18
2016-11-11T01:31:47.023Z,52.27
2016-11-11T01:32:27.568Z,52.37
2016-11-11T01:33:08.116Z,52.37
2016-11-11T01:33:48.662Z,52.56
2016-11-11T01:34:29.209Z,52.37
2016-11-11T01:35:09.749Z,52.27
2016-11-11T01:35:50.295Z,52.27
2016-11-11T01:36:30.837Z,52.37
2016-11-11T01:37:11.382Z,52.37
2016-11-11T01:37:51.929Z,51.98
2016-11-11T01:38:32.501Z,52.18
2016-11-11T01:39:13.045Z,52.37
2016-11-11T01:39:53.588Z,51.79
2016-11-11T01:40:34.133Z,52.18
2016-11-11T01:41:14.678Z,52.08
2016-11-11T01:41:55.224Z,52.37
2016-11-11T01:42:35.772Z,52.37
2016-11-11T01:43:16.317Z,52.18
2016-11-11T01:43:56.859Z,52.27
2016-11-11T01:44:37.404Z,52.08
2016-11-11T01:45:17.956Z,52.37
2016-11-11T01:45:58.501Z,52.37
2016-11-11T01:46:39.046Z,52.37
2016-11-11T01:47:19.591Z,52.37
2016-11-11T01:48:00.137Z,52.47
2016-11-11T01:48:40.687Z,51.89
2016-11-11T01:49:21.258Z,52.37
2016-11-11T01:50:01.802Z,51.98
2016-11-11T01:50:42.347Z,52.56
2016-11-11T01:51:22.890Z,52.08
2016-11-11T01:52:03.443Z,52.37
2016-11-11T01:52:43.984Z,52.18
2016-11-11T01:53:24.534Z,52.37
2016-11-11T01:54:05.083Z,52.27
2016-11-11T01:54:45.629Z,52.47
2016-11-11T01:55:26.217Z,51.89
2016-11-11T01:56:06.761Z,52.47
2016-11-11T01:56:47.303Z,51.98
2016-11-11T01:57:27.844Z,52.66
2016-11-11T01:58:08.388Z,52.37
2016-11-11T01:58:48.934Z,52.37
2016-11-11T01:59:29.475Z,52.27
2016-11-11T02:00:10.018Z,51.89
2016-11-11T02:00:50.560Z,52.18
2016-11-11T02:01:31.107Z,52.47
2016-11-11T02:02:11.652Z,51.89
2016-11-11T02:02:52.197Z,52.18
2016-11-11T02:03:32.750Z,52.37
2016-11-11T02:04:13.291Z,51.98
2016-11-11T02:04:53.833Z,51.98
2016-11-11T02:05:34.379Z,51.89
2016-11-11T02:06:14.928Z,52.18
2016-11-11T02:06:55.470Z,52.27
2016-11-11T02:07:36.015Z,51.98
2016-11-11T02:08:16.559Z,51.98
2016-11-11T02:08:57.142Z,51.98
2016-11-11T02:09:37.628Z,52.37
2016-11-11T02:10:18.171Z,51.79
2016-11-11T02:10:58.711Z,52.08
2016-11-11T02:11:39.254Z,51.89
2016-11-11T02:12:19.798Z,51.89
2016-11-11T02:13:00.348Z,52.08
2016-11-11T02:13:40.893Z,51.89
2016-11-11T02:14:21.441Z,52.37
2016-11-11T02:15:02.045Z,51.89
2016-11-11T02:15:42.583Z,51.98
2016-11-11T02:16:23.127Z,52.66
2016-11-11T02:17:03.676Z,51.98
2016-11-11T02:17:44.221Z,51.89
2016-11-11T02:18:24.773Z,51.89
2016-11-11T02:19:05.315Z,51.89
2016-11-11T02:19:45.865Z,52.08
2016-11-11T02:20:26.422Z,51.89
2016-11-11T02:21:06.960Z,51.98
2016-11-11T02:21:47.508Z,51.89
2016-11-11T02:22:28.052Z,52.37
2016-11-11T02:23:08.598Z,51.98
2016-11-11T02:23:49.149Z,52.18
2016-11-11T02:24:29.694Z,51.98
2016-11-11T02:25:10.240Z,52.27
2016-11-11T02:25:50.780Z,51.98
2016-11-11T02:26:31.317Z,51.98
2016-11-11T02:27:11.859Z,52.27
2016-11-11T02:27:52.398Z,51.98
2016-11-11T02:28:32.941Z,51.79
2016-11-11T02:29:13.489Z,52.08
2016-11-11T02:29:54.032Z,51.98
2016-11-11T02:30:34.576Z,52.08
2016-11-11T02:31:15.122Z,51.79
2016-11-11T02:31:55.670Z,51.98
2016-11-11T02:32:36.212Z,51.89
2016-11-11T02:33:16.757Z,51.98
2016-11-11T02:33:57.291Z,51.98
2016-11-11T02:34:37.838Z,51.89
2016-11-11T02:35:18.385Z,52.08
2016-11-11T02:35:58.926Z,51.6
2016-11-11T02:36:39.468Z,51.98
2016-11-11T02:37:20.017Z,52.18
2016-11-11T02:38:00.552Z,51.89
2016-11-11T02:38:41.098Z,51.89
2016-11-11T02:39:21.643Z,51.79
2016-11-11T02:40:02.193Z,51.89
2016-11-11T02:40:42.737Z,51.98
2016-11-11T02:41:23.280Z,51.89
2016-11-11T02:42:03.819Z,52.08
2016-11-11T02:42:44.361Z,52.27
2016-11-11T02:43:24.922Z,52.37
2016-11-11T02:44:05.472Z,51.89
2016-11-11T02:44:46.020Z,51.89
2016-11-11T02:45:26.575Z,52.37
2016-11-11T02:46:07.122Z,51.98
2016-11-11T02:46:47.667Z,51.98
2016-11-11T02:47:28.206Z,51.89
2016-11-11T02:48:08.759Z,51.6
2016-11-11T02:48:49.304Z,51.89
2016-11-11T02:49:29.852Z,51.98
2016-11-11T02:50:10.394Z,52.08
2016-11-11T02:50:50.936Z,51.89
2016-11-11T02:51:31.468Z,51.98
2016-11-11T02:52:12.014Z,51.6
2016-11-11T02:52:52.558Z,52.08
2016-11-11T02:53:33.108Z,51.89
2016-11-11T02:54:13.651Z,51.98
2016-11-11T02:54:54.196Z,51.79
2016-11-11T02:55:34.743Z,51.98
2016-11-11T02:56:15.288Z,51.89
2016-11-11T02:56:55.833Z,51.79
2016-11-11T02:57:36.378Z,51.89
2016-11-11T02:58:16.924Z,51.98
2016-11-11T02:58:57.451Z,51.89
2016-11-11T02:59:37.992Z,51.6
2016-11-11T03:00:18.536Z,52.27
2016-11-11T03:00:59.079Z,51.89
2016-11-11T03:01:39.622Z,51.6
2016-11-11T03:02:20.165Z,52.08
2016-11-11T03:03:00.705Z,51.89
2016-11-11T03:03:41.253Z,51.89
2016-11-11T03:04:21.797Z,51.6
2016-11-11T03:05:02.340Z,51.6
2016-11-11T03:05:42.883Z,51.6
2016-11-11T03:06:23.430Z,51.89
2016-11-11T03:07:03.978Z,51.89
2016-11-11T03:07:44.522Z,51.98
2016-11-11T03:08:25.067Z,51.5
2016-11-11T03:09:05.601Z,51.57
2016-11-11T03:09:46.154Z,51.79
2016-11-11T03:10:26.696Z,51.79
2016-11-11T03:11:07.238Z,51.6
2016-11-11T03:11:47.783Z,51.86
2016-11-11T03:12:28.334Z,51.48
2016-11-11T03:13:08.885Z,51.5
2016-11-11T03:13:49.424Z,51.89
2016-11-11T03:14:29.974Z,51.41
2016-11-11T03:15:10.517Z,51.89
2016-11-11T03:15:51.067Z,51.89
2016-11-11T03:16:31.601Z,51.21
2016-11-11T03:17:12.146Z,51.41
2016-11-11T03:17:52.685Z,51.79
2016-11-11T03:18:33.233Z,51.5
2016-11-11T03:19:13.778Z,51.6
2016-11-11T03:19:54.317Z,51.48
2016-11-11T03:20:34.854Z,51.98
2016-11-11T03:21:15.425Z,51.6
2016-11-11T03:21:55.965Z,51.6
2016-11-11T03:22:36.502Z,51.89
2016-11-11T03:23:17.052Z,51.41
2016-11-11T03:23:57.596Z,51.7
2016-11-11T03:24:38.139Z,51.6
2016-11-11T03:25:18.686Z,51.6
2016-11-11T03:25:59.236Z,51.79
2016-11-11T03:26:39.788Z,51.5
2016-11-11T03:27:20.329Z,51.31
2016-11-11T03:28:00.880Z,51.6
2016-11-11T03:28:41.422Z,51.6
2016-11-11T03:29:21.971Z,51.7
2016-11-11T03:30:02.518Z,51.5
2016-11-11T03:30:43.067Z,51.6
2016-11-11T03:31:23.609Z,51.67
2016-11-11T03:32:04.151Z,51.5
2016-11-11T03:32:44.699Z,51.6
2016-11-11T03:33:25.244Z,51.7
2016-11-11T03:34:05.779Z,51.5
2016-11-11T03:34:46.331Z,51.5
2016-11-11T03:35:26.872Z,51.6
2016-11-11T03:36:07.416Z,51.41
2016-11-11T03:36:47.960Z,51.6
2016-11-11T03:37:28.547Z,51.7
2016-11-11T03:38:09.097Z,51.67
2016-11-11T03:38:49.634Z,51.98
2016-11-11T03:39:30.178Z,51.79
2016-11-11T03:40:10.718Z,51.5
2016-11-11T03:40:51.263Z,51.6
2016-11-11T03:41:31.806Z,51.5
2016-11-11T03:42:12.347Z,51.5
2016-11-11T03:42:52.897Z,51.89
2016-11-11T03:43:33.439Z,51.89
2016-11-11T03:44:13.986Z,51.7
2016-11-11T03:44:54.533Z,51.6
2016-11-11T03:45:35.075Z,51.41
2016-11-11T03:46:15.616Z,51.5
2016-11-11T03:46:56.162Z,51.6
2016-11-11T03:47:36.697Z,51.02
2016-11-11T03:48:17.243Z,51.7
2016-11-11T03:48:57.793Z,51.7
2016-11-11T03:49:38.329Z,51.5
2016-11-11T03:50:18.877Z,51.41
2016-11-11T03:50:59.419Z,51.31
2016-11-11T03:51:39.969Z,51.79
2016-11-11T03:52:20.521Z,51.6
2016-11-11T03:53:01.062Z,51.6
2016-11-11T03:53:41.604Z,51.6
2016-11-11T03:54:22.151Z,51.12
2016-11-11T03:55:02.697Z,51.5
2016-11-11T03:55:43.244Z,51.6
2016-11-11T03:56:23.788Z,51.02
2016-11-11T03:57:04.337Z,51.12
2016-11-11T03:57:44.885Z,51.12
2016-11-11T03:58:25.425Z,51.02
2016-11-11T03:59:05.957Z,51.02
2016-11-11T03:59:46.506Z,51.31
2016-11-11T04:00:27.048Z,51.12
2016-11-11T04:01:07.585Z,51.79
2016-11-11T04:01:48.135Z,51.98
2016-11-11T04:02:28.680Z,51.89
2016-11-11T04:03:09.229Z,50.93
2016-11-11T04:03:49.775Z,51.02
2016-11-11T04:04:30.320Z,51.21
2016-11-11T04:05:10.866Z,51.12
2016-11-11T04:05:51.409Z,50.93
2016-11-11T04:06:31.959Z,51.02
2016-11-11T04:07:12.511Z,51.02
2016-11-11T04:07:53.055Z,50.83
2016-11-11T04:08:33.600Z,51.12
2016-11-11T04:09:14.142Z,50.93
2016-11-11T04:09:54.685Z,51.21
2016-11-11T04:10:35.227Z,50.93
2016-11-11T04:11:15.768Z,50.93
2016-11-11T04:11:56.337Z,51.12
2016-11-11T04:12:36.876Z,51.31
2016-11-11T04:13:17.593Z,51.89
2016-11-11T04:13:58.141Z,51.6
2016-11-11T04:14:38.681Z,51.5
2016-11-11T04:15:19.231Z,51.5
2016-11-11T04:15:59.771Z,50.93
2016-11-11T04:16:40.318Z,51.21
2016-11-11T04:17:20.862Z,50.93
2016-11-11T04:18:01.393Z,50.93
2016-11-11T04:18:41.932Z,51.02
2016-11-11T04:19:22.471Z,51.12
2016-11-11T04:20:03.012Z,51.12
2016-11-11T04:20:43.556Z,51.12
2016-11-11T04:21:24.103Z,51.41
2016-11-11T04:22:04.650Z,50.93
2016-11-11T04:22:45.199Z,51.12
2016-11-11T04:23:25.746Z,50.93
2016-11-11T04:24:06.291Z,51.02
2016-11-11T04:24:46.835Z,51.12
2016-11-11T04:25:27.379Z,51.12
2016-11-11T04:26:07.922Z,51.02
2016-11-11T04:26:48.464Z,51.31
2016-11-11T04:27:29.011Z,51.21
2016-11-11T04:28:09.559Z,51.02
2016-11-11T04:28:50.108Z,51.31
2016-11-11T04:29:30.653Z,51.12
2016-11-11T04:30:11.202Z,51.12
2016-11-11T04:30:51.744Z,51.12
2016-11-11T04:31:32.295Z,51.12
2016-11-11T04:32:12.842Z,51.21
2016-11-11T04:32:53.383Z,51.12
2016-11-11T04:33:33.929Z,51.02
2016-11-11T04:34:14.476Z,51.02
2016-11-11T04:34:55.024Z,51.02
2016-11-11T04:35:35.569Z,51.02
2016-11-11T04:36:16.117Z,51.12
2016-11-11T04:36:56.656Z,51.21
2016-11-11T04:37:37.199Z,51.02
2016-11-11T04:38:17.749Z,51.5
2016-11-11T04:38:58.299Z,51.89
2016-11-11T04:39:38.848Z,52.56
2016-11-11T04:40:19.395Z,52.37
2016-11-11T04:40:59.948Z,52.56
2016-11-11T04:41:40.488Z,52.56
2016-11-11T04:42:21.035Z,52.56
2016-11-11T04:43:01.583Z,53.23
2016-11-11T04:43:42.128Z,53.05
2016-11-11T04:44:22.673Z,53.23
2016-11-11T04:45:03.217Z,53.62
2016-11-11T04:45:43.761Z,53.05
2016-11-11T04:46:24.314Z,52.75
2016-11-11T04:47:04.852Z,52.75
2016-11-11T04:47:45.396Z,52.85
2016-11-11T04:48:25.954Z,53.05
2016-11-11T04:49:06.501Z,52.66
2016-11-11T04:49:47.044Z,52.56
2016-11-11T04:50:27.591Z,52.85
2016-11-11T04:51:08.137Z,52.47
2016-11-11T04:51:48.681Z,52.56
2016-11-11T04:52:29.227Z,52.75
2016-11-11T04:53:09.773Z,52.66
2016-11-11T04:53:50.323Z,52.56
2016-11-11T04:54:30.860Z,52.66
2016-11-11T04:55:11.412Z,52.75
2016-11-11T04:55:52.009Z,52.56
2016-11-11T04:56:32.554Z,52.56
2016-11-11T04:57:13.099Z,52.56
2016-11-11T04:57:53.646Z,52.56
2016-11-11T04:58:34.196Z,52.18
2016-11-11T04:59:14.752Z,52.18
2016-11-11T04:59:55.306Z,52.59
2016-11-11T05:00:35.859Z,52.18
2016-11-11T05:01:16.542Z,52.08
2016-11-11T05:01:57.141Z,52.27
2016-11-11T05:02:37.685Z,52.27
2016-11-11T05:03:18.233Z,52.18
2016-11-11T05:03:58.784Z,52.27
2016-11-11T05:04:39.333Z,52.37
2016-11-11T05:05:19.886Z,52.47
2016-11-11T05:06:00.491Z,52.47
2016-11-11T05:06:41.039Z,52.27
2016-11-11T05:07:21.584Z,52.4
2016-11-11T05:08:02.124Z,52.27
2016-11-11T05:08:42.669Z,52.47
2016-11-11T05:09:23.223Z,52.37
2016-11-11T05:10:03.771Z,52.37
2016-11-11T05:10:44.321Z,52.18
2016-11-11T05:11:24.870Z,52.47
2016-11-11T05:12:05.416Z,52.18
2016-11-11T05:12:45.955Z,52.37
2016-11-11T05:13:26.503Z,52.18
2016-11-11T05:14:07.068Z,51.89
2016-11-11T05:14:47.618Z,51.98
2016-11-11T05:15:28.164Z,52.18
2016-11-11T05:16:08.719Z,51.98
2016-11-11T05:16:49.308Z,51.98
2016-11-11T05:17:29.846Z,51.92
2016-11-11T05:18:10.379Z,52.11
2016-11-11T05:18:50.968Z,52.2
2016-11-11T05:19:31.509Z,52.11
2016-11-11T05:20:12.048Z,51.92
2016-11-11T05:20:52.589Z,52.01
2016-11-11T05:21:33.118Z,52.49
2016-11-11T05:22:13.652Z,52.49
2016-11-11T05:22:54.181Z,52.59
2016-11-11T05:23:34.733Z,52.49
2016-11-11T05:24:15.279Z,52.3
2016-11-11T05:24:55.817Z,52.49
2016-11-11T05:25:36.434Z,52.4
2016-11-11T05:26:16.985Z,52.2
2016-11-11T05:26:57.522Z,52.2
2016-11-11T05:27:38.071Z,52.59
2016-11-11T05:28:18.616Z,52.2
2016-11-11T05:28:59.163Z,52.69
2016-11-11T05:29:39.715Z,52.59
2016-11-11T05:30:20.268Z,52.78
2016-11-11T05:31:00.807Z,52.87
2016-11-11T05:31:41.355Z,52.78
2016-11-11T05:32:21.898Z,52.78
2016-11-11T05:33:02.442Z,52.87
2016-11-11T05:33:42.990Z,52.69
2016-11-11T05:34:23.526Z,52.59
2016-11-11T05:35:04.067Z,52.78
2016-11-11T05:35:44.623Z,53.17
2016-11-11T05:36:25.175Z,52.49
2016-11-11T05:37:05.734Z,52.78
2016-11-11T05:37:46.277Z,52.78
2016-11-11T05:38:26.843Z,53.17
2016-11-11T05:39:07.441Z,52.78
2016-11-11T05:39:48.066Z,53.07
2016-11-11T05:40:28.698Z,53.36
2016-11-11T05:41:09.267Z,53.45
2016-11-11T05:41:49.851Z,53.45
2016-11-11T05:42:30.391Z,53.74
2016-11-11T05:43:10.939Z,53.74
2016-11-11T05:43:51.485Z,53.84
2016-11-11T05:44:32.027Z,53.94
2016-11-11T05:45:12.601Z,53.94
2016-11-11T05:45:53.150Z,54.13
2016-11-11T05:46:33.692Z,53.36
2016-11-11T05:47:14.237Z,53.07
2016-11-11T05:47:54.781Z,54.13
2016-11-11T05:48:35.325Z,53.74
2016-11-11T05:49:15.866Z,53.84
2016-11-11T05:49:56.417Z,53.17
2016-11-11T05:50:36.954Z,51.72
2016-11-11T05:51:17.501Z,52.69
2016-11-11T05:51:58.050Z,53.27
2016-11-11T05:52:38.588Z,53.17
2016-11-11T05:53:19.133Z,53.17
2016-11-11T05:53:59.677Z,53.27
2016-11-11T05:54:40.226Z,52.87
2016-11-11T05:55:20.778Z,53.07
2016-11-11T05:56:01.328Z,53.27
2016-11-11T05:56:41.878Z,53.07
2016-11-11T05:57:22.428Z,52.78
2016-11-11T05:58:02.974Z,52.69
2016-11-11T05:58:43.530Z,52.49
2016-11-11T05:59:24.088Z,52.69
2016-11-11T06:00:04.642Z,52.4
2016-11-11T06:00:45.190Z,52.11
2016-11-11T06:01:25.742Z,52.4
2016-11-11T06:02:06.291Z,52.49
2016-11-11T06:02:46.842Z,52.3
2016-11-11T06:03:27.422Z,52.4
2016-11-11T06:04:07.970Z,52.4
2016-11-11T06:04:48.518Z,51.82
2016-11-11T06:07:07.856Z,51.72
2016-11-11T06:07:48.401Z,51.82
2016-11-11T06:08:28.955Z,52.01
2016-11-11T06:09:09.531Z,52.01
2016-11-11T06:09:50.073Z,52.01
2016-11-11T06:10:30.618Z,52.4
2016-11-11T06:11:11.155Z,51.84
2016-11-11T06:11:51.707Z,51.65
2016-11-11T06:12:32.249Z,52.23
2016-11-11T06:13:12.797Z,52.61
2016-11-11T06:13:53.344Z,52.04
2016-11-11T06:14:33.885Z,52.42
2016-11-11T06:15:14.444Z,52.42
2016-11-11T06:15:54.983Z,52.52
2016-11-11T06:16:35.530Z,52.13
2016-11-11T06:17:16.074Z,52.33
2016-11-11T06:17:56.642Z,52.33
2016-11-11T06:18:37.185Z,52.81
2016-11-11T06:19:17.732Z,52.81
2016-11-11T06:19:58.273Z,53.29
2016-11-11T06:20:38.820Z,53.67
2016-11-11T06:21:19.366Z,53.19
2016-11-11T06:21:59.902Z,52.91
2016-11-11T06:22:40.440Z,52.71
2016-11-11T06:23:20.990Z,52.91
2016-11-11T06:24:01.529Z,52.71
2016-11-11T06:24:42.079Z,52.52
2016-11-11T06:25:22.627Z,52.33
2016-11-11T06:26:03.179Z,52.42
2016-11-11T06:26:43.728Z,52.33
2016-11-11T06:27:24.281Z,52.33
2016-11-11T06:28:04.830Z,52.13
2016-11-11T06:28:45.382Z,52.04
2016-11-11T06:29:25.931Z,52.13
2016-11-11T06:30:06.483Z,52.13
2016-11-11T06:30:47.034Z,52.33
2016-11-11T06:31:27.583Z,52.13
2016-11-11T06:32:08.130Z,52.33
2016-11-11T06:32:48.676Z,52.04
2016-11-11T06:33:29.232Z,52.33
2016-11-11T06:34:09.796Z,51.84
2016-11-11T06:34:50.347Z,51.36
2016-11-11T06:35:30.897Z,51.26
2016-11-11T06:36:11.443Z,51.94
2016-11-11T06:36:51.995Z,51.75
2016-11-11T06:37:32.543Z,51.65
2016-11-11T06:38:13.096Z,52.33
2016-11-11T06:38:53.642Z,51.75
2016-11-11T06:39:34.197Z,51.65
2016-11-11T06:40:14.749Z,52.04
2016-11-11T06:40:55.288Z,52.13
2016-11-11T06:41:35.832Z,52.13
2016-11-11T06:42:16.381Z,51.94
2016-11-11T06:42:56.928Z,51.56
2016-11-11T06:43:37.479Z,50.11
2016-11-11T06:44:18.029Z,48.47
2016-11-11T06:44:58.580Z,49.82
2016-11-11T06:45:39.130Z,50.3
2016-11-11T06:46:19.682Z,50.59
2016-11-11T06:47:00.228Z,51.46
2016-11-11T06:47:40.780Z,51.36
2016-11-11T06:48:21.328Z,51.46
2016-11-11T06:49:01.869Z,51.17
2016-11-11T06:49:42.419Z,50.98
2016-11-11T06:50:22.959Z,50.49
2016-11-11T06:51:03.505Z,50.78
2016-11-11T06:51:44.050Z,50.78
2016-11-11T06:52:24.596Z,50.69
2016-11-11T06:53:05.140Z,50.69
2016-11-11T06:53:45.691Z,50.21
2016-11-11T06:54:26.240Z,50.59
2016-11-11T06:55:06.785Z,50.59
2016-11-11T06:55:47.331Z,50.21
2016-11-11T06:56:27.878Z,50.11
2016-11-11T06:57:08.426Z,50.21
2016-11-11T06:57:48.976Z,50.11
2016-11-11T06:58:29.524Z,50.11
2016-11-11T06:59:10.076Z,50.01
2016-11-11T06:59:50.630Z,49.82
2016-11-11T07:00:31.178Z,50.11
2016-11-11T07:01:11.721Z,49.91
2016-11-11T07:01:52.281Z,49.82
2016-11-11T07:02:32.831Z,50.01
2016-11-11T07:03:13.382Z,50.01
2016-11-11T07:03:53.922Z,49.73
2016-11-11T07:04:34.471Z,50.01
2016-11-11T07:05:15.013Z,49.91
2016-11-11T07:05:55.562Z,49.82
2016-11-11T07:06:36.111Z,49.82
2016-11-11T07:07:16.669Z,50.3
2016-11-11T07:07:57.204Z,49.34
2016-11-11T07:08:37.744Z,50.01
2016-11-11T07:09:18.293Z,49.63
2016-11-11T07:09:58.841Z,49.24
2016-11-11T07:10:39.384Z,49.15
2016-11-11T07:11:19.934Z,49.15
2016-11-11T07:12:00.483Z,49.53
2016-11-11T07:12:41.032Z,49.53
2016-11-11T07:13:21.580Z,49.34
2016-11-11T07:14:02.117Z,48.76
2016-11-11T07:14:42.656Z,48.95
2016-11-11T07:15:23.202Z,49.05
2016-11-11T07:16:03.750Z,48.86
2016-11-11T07:16:44.298Z,48.66
2016-11-11T07:17:24.840Z,48.86
2016-11-11T07:18:05.393Z,48.86
2016-11-11T07:18:45.943Z,48.95
2016-11-11T07:19:26.490Z,48.95
2016-11-11T07:20:07.032Z,48.86
2016-11-11T07:20:47.578Z,49.24
2016-11-11T07:21:28.128Z,48.76
2016-11-11T07:22:08.674Z,49.43
2016-11-11T07:22:49.222Z,48.86
2016-11-11T07:23:29.779Z,48.95
2016-11-11T07:24:10.327Z,49.43
2016-11-11T07:24:50.878Z,48.76
2016-11-11T07:25:31.412Z,48.66
2016-11-11T07:26:11.961Z,48.76
2016-11-11T07:26:52.504Z,48.76
2016-11-11T07:27:33.053Z,49.05
2016-11-11T07:28:13.602Z,48.76
2016-11-11T07:28:54.139Z,48.47
2016-11-11T07:29:34.683Z,48.57
2016-11-11T07:30:15.233Z,48.38
2016-11-11T07:30:55.778Z,48.57
2016-11-11T07:31:36.326Z,48.57
2016-11-11T07:32:16.868Z,48.47
2016-11-11T07:32:57.415Z,48.38
2016-11-11T07:33:37.965Z,48.86
2016-11-11T07:34:18.514Z,48.57
2016-11-11T07:34:59.058Z,48.08
2016-11-11T07:35:39.612Z,48.66
2016-11-11T07:36:20.170Z,48.28
2016-11-11T07:37:00.720Z,48.47
2016-11-11T07:37:41.272Z,48.47
2016-11-11T07:38:21.809Z,48.47
2016-11-11T07:39:02.360Z,48.66
2016-11-11T07:39:42.904Z,48.86
2016-11-11T07:40:23.449Z,48.08
2016-11-11T07:41:04.005Z,48.18
2016-11-11T07:41:44.554Z,48.38
2016-11-11T07:42:25.102Z,48.57
2016-11-11T07:43:05.650Z,48.18
2016-11-11T07:43:46.215Z,47.89
2016-11-11T07:44:26.758Z,48.18
2016-11-11T07:45:07.306Z,47.8
2016-11-11T07:45:47.857Z,48.28
2016-11-11T07:46:28.399Z,48.28
2016-11-11T07:47:08.947Z,48.28
2016-11-11T07:47:49.499Z,48.08
2016-11-11T07:48:30.049Z,47.99
2016-11-11T07:49:10.599Z,47.8
2016-11-11T07:49:51.156Z,48.08
2016-11-11T07:50:31.702Z,47.89
2016-11-11T07:51:12.244Z,47.99
2016-11-11T07:51:52.791Z,48.28
2016-11-11T07:52:33.335Z,47.8
2016-11-11T07:53:13.879Z,47.89
2016-11-11T07:53:54.412Z,47.8
2016-11-11T07:54:34.960Z,48.08
2016-11-11T07:55:15.510Z,47.89
2016-11-11T07:55:56.055Z,48.08
2016-11-11T07:56:36.591Z,48.18
2016-11-11T07:57:17.135Z,47.99
2016-11-11T07:57:57.687Z,47.99
2016-11-11T07:58:38.247Z,48.21
2016-11-11T07:59:18.796Z,48.11
2016-11-11T07:59:59.340Z,47.8
2016-11-11T08:00:39.891Z,47.92
2016-11-11T08:01:20.444Z,47.63
2016-11-11T08:02:00.992Z,47.41
2016-11-11T08:02:41.543Z,47.24
2016-11-11T08:03:22.188Z,47.99
2016-11-11T08:04:02.720Z,47.41
2016-11-11T08:04:43.267Z,47.51
2016-11-11T08:05:23.809Z,47.6
2016-11-11T08:06:04.350Z,47.72
2016-11-11T08:06:44.907Z,47.92
2016-11-11T08:07:25.440Z,47.99
2016-11-11T08:08:05.983Z,47.31
2016-11-11T08:08:46.531Z,47.41
2016-11-11T08:09:27.086Z,47.82
2016-11-11T08:10:07.622Z,47.63
2016-11-11T08:10:48.171Z,47.22
2016-11-11T08:11:28.711Z,47.31
2016-11-11T08:12:09.264Z,47.53
2016-11-11T08:12:49.815Z,47.63
2016-11-11T08:13:30.363Z,47.6
2016-11-11T08:14:10.908Z,48.11
2016-11-11T08:14:51.459Z,47.63
2016-11-11T08:15:32.011Z,47.72
2016-11-11T08:16:12.560Z,47.31
2016-11-11T08:16:53.114Z,47.44
2016-11-11T08:17:33.661Z,47.14
2016-11-11T08:18:14.214Z,48.01
2016-11-11T08:18:54.758Z,48.01
2016-11-11T08:19:35.308Z,47.34
2016-11-11T08:20:15.854Z,47.34
2016-11-11T08:20:56.403Z,47.44
2016-11-11T08:21:36.952Z,47.24
2016-11-11T08:22:17.501Z,47.24
2016-11-11T08:22:58.052Z,47.53
2016-11-11T08:23:38.598Z,47.44
2016-11-11T08:24:19.150Z,47.24
2016-11-11T08:24:59.701Z,47.53
2016-11-11T08:25:40.241Z,47.63
2016-11-11T08:26:20.789Z,47.44
2016-11-11T08:27:01.339Z,47.44
2016-11-11T08:27:41.884Z,47.53
2016-11-11T08:28:22.426Z,47.53
2016-11-11T08:29:02.976Z,47.24
2016-11-11T08:29:43.523Z,47.63
2016-11-11T08:30:24.064Z,47.63
2016-11-11T08:31:04.607Z,47.63
2016-11-11T08:31:45.156Z,47.34
2016-11-11T08:32:25.706Z,47.34
2016-11-11T08:33:06.257Z,47.44
2016-11-11T08:33:46.809Z,47.24
2016-11-11T08:34:27.358Z,47.72
2016-11-11T08:35:07.905Z,47.24
2016-11-11T08:35:48.445Z,47.24
2016-11-11T08:36:28.996Z,47.63
2016-11-11T08:37:09.543Z,47.53
2016-11-11T08:37:50.133Z,47.24
2016-11-11T08:38:30.670Z,47.24
2016-11-11T08:39:11.228Z,47.44
2016-11-11T08:39:51.787Z,47.44
2016-11-11T08:40:32.340Z,47.63
2016-11-11T08:41:12.886Z,47.05
2016-11-11T08:41:53.435Z,47.34
2016-11-11T08:42:33.973Z,47.44
2016-11-11T08:43:14.521Z,47.24
2016-11-11T08:43:55.063Z,47.14
2016-11-11T08:44:35.616Z,47.53
2016-11-11T08:45:16.165Z,47.34
2016-11-11T08:45:56.715Z,47.14
2016-11-11T08:46:37.260Z,47.24
2016-11-11T08:47:17.807Z,47.05
2016-11-11T08:47:58.358Z,46.76
2016-11-11T08:48:38.905Z,47.14
2016-11-11T08:49:19.458Z,47.34
2016-11-11T08:50:00.008Z,46.76
2016-11-11T08:50:40.558Z,47.24
2016-11-11T08:51:21.105Z,47.14
2016-11-11T08:52:01.654Z,47.14
2016-11-11T08:52:42.205Z,47.05
2016-11-11T08:53:22.756Z,46.86
2016-11-11T08:54:03.308Z,47.24
2016-11-11T08:54:43.856Z,46.66
2016-11-11T08:55:24.416Z,46.76
2016-11-11T08:56:04.965Z,47.05
2016-11-11T08:56:45.514Z,46.95
2016-11-11T08:57:26.089Z,46.97
2016-11-11T08:58:06.632Z,47.14
2016-11-11T08:58:47.173Z,46.66
2016-11-11T08:59:27.722Z,46.86
2016-11-11T09:00:08.273Z,46.76
2016-11-11T09:00:48.825Z,46.78
2016-11-11T09:01:29.375Z,46.76
2016-11-11T09:02:09.923Z,47.07
2016-11-11T09:02:50.475Z,46.86
2016-11-11T09:03:31.016Z,46.56